sensor_id;sensor_type;location;lat;lon;timestamp;pressure;altitude;pressure_sealevel;temperature;humidity
9523;BME280;63165;43.016;25.784;2023-02-15T00:01:28;101435.53;;;4.42;72.83
9523;BME280;63165;43.016;25.784;2023-02-15T00:03:55;101445.91;;;4.42;72.85
9523;BME280;63165;43.016;25.784;2023-02-15T00:06:23;101443.19;;;4.38;72.84
9523;BME280;63165;43.016;25.784;2023-02-15T00:08:50;101444.81;;;4.34;72.77
9523;BME280;63165;43.016;25.784;2023-02-15T00:11:19;101441.25;;;4.31;72.70
9523;BME280;63165;43.016;25.784;2023-02-15T00:14:06;101445.44;;;4.27;72.88
9523;BME280;63165;43.016;25.784;2023-02-15T00:16:34;101439.28;;;4.23;72.83
9523;BME280;63165;43.016;25.784;2023-02-15T00:19:02;101439.09;;;4.17;72.86
9523;BME280;63165;43.016;25.784;2023-02-15T00:21:30;101449.41;;;4.16;73.00
9523;BME280;63165;43.016;25.784;2023-02-15T00:23:59;101447.56;;;4.13;73.18
9523;BME280;63165;43.016;25.784;2023-02-15T00:26:29;101443.13;;;4.09;73.12
9523;BME280;63165;43.016;25.784;2023-02-15T00:28:57;101445.66;;;4.06;73.33
9523;BME280;63165;43.016;25.784;2023-02-15T00:31:25;101447.28;;;4.04;73.45
9523;BME280;63165;43.016;25.784;2023-02-15T00:33:53;101441.91;;;3.98;73.42
9523;BME280;63165;43.016;25.784;2023-02-15T00:36:20;101445.28;;;3.95;73.65
9523;BME280;63165;43.016;25.784;2023-02-15T00:38:47;101440.88;;;3.93;73.70
9523;BME280;63165;43.016;25.784;2023-02-15T00:41:14;101426.75;;;3.83;73.83
9523;BME280;63165;43.016;25.784;2023-02-15T00:43:43;101428.41;;;3.81;73.67
9523;BME280;63165;43.016;25.784;2023-02-15T00:46:10;101433.69;;;3.84;73.63
9523;BME280;63165;43.016;25.784;2023-02-15T00:48:37;101437.03;;;3.80;73.86
9523;BME280;63165;43.016;25.784;2023-02-15T00:51:05;101431.78;;;3.78;73.92
9523;BME280;63165;43.016;25.784;2023-02-15T00:53:32;101426.38;;;3.72;73.83
9523;BME280;63165;43.016;25.784;2023-02-15T00:55:59;101435.13;;;3.76;74.02
9523;BME280;63165;43.016;25.784;2023-02-15T00:58:26;101428.22;;;3.75;73.88
9523;BME280;63165;43.016;25.784;2023-02-15T01:01:02;101429.69;;;3.68;74.32
9523;BME280;63165;43.016;25.784;2023-02-15T01:03:30;101435.66;;;3.65;74.09
9523;BME280;63165;43.016;25.784;2023-02-15T01:05:57;101423.47;;;3.61;74.28
9523;BME280;63165;43.016;25.784;2023-02-15T01:08:24;101430.22;;;3.58;74.18
9523;BME280;63165;43.016;25.784;2023-02-15T01:10:52;101425.78;;;3.54;74.37
9523;BME280;63165;43.016;25.784;2023-02-15T01:13:19;101411.88;;;3.50;74.63
9523;BME280;63165;43.016;25.784;2023-02-15T01:15:52;101423.63;;;3.42;74.91
9523;BME280;63165;43.016;25.784;2023-02-15T01:18:21;101424.53;;;3.42;74.59
9523;BME280;63165;43.016;25.784;2023-02-15T01:20:49;101427.00;;;3.39;74.64
9523;BME280;63165;43.016;25.784;2023-02-15T01:23:16;101425.97;;;3.34;74.96
9523;BME280;63165;43.016;25.784;2023-02-15T01:25:43;101410.91;;;3.22;74.96
9523;BME280;63165;43.016;25.784;2023-02-15T01:28:11;101415.22;;;3.23;75.41
9523;BME280;63165;43.016;25.784;2023-02-15T01:30:41;101420.59;;;3.28;75.56
9523;BME280;63165;43.016;25.784;2023-02-15T01:33:08;101430.16;;;3.30;75.80
9523;BME280;63165;43.016;25.784;2023-02-15T01:35:45;101436.91;;;3.27;75.71
9523;BME280;63165;43.016;25.784;2023-02-15T01:38:13;101431.00;;;3.29;75.62
9523;BME280;63165;43.016;25.784;2023-02-15T01:40:40;101426.50;;;3.25;75.50
9523;BME280;63165;43.016;25.784;2023-02-15T01:43:10;101421.34;;;3.25;75.45
9523;BME280;63165;43.016;25.784;2023-02-15T01:45:38;101429.09;;;3.25;75.47
9523;BME280;63165;43.016;25.784;2023-02-15T01:48:13;101408.09;;;3.16;75.60
9523;BME280;63165;43.016;25.784;2023-02-15T01:50:48;101412.75;;;3.26;75.57
9523;BME280;63165;43.016;25.784;2023-02-15T01:53:20;101415.34;;;3.26;75.42
9523;BME280;63165;43.016;25.784;2023-02-15T01:55:52;101416.13;;;3.24;75.15
9523;BME280;63165;43.016;25.784;2023-02-15T01:58:21;101404.41;;;3.09;75.23
9523;BME280;63165;43.016;25.784;2023-02-15T02:00:49;101432.31;;;3.18;75.23
9523;BME280;63165;43.016;25.784;2023-02-15T02:03:16;101425.91;;;3.08;74.90
9523;BME280;63165;43.016;25.784;2023-02-15T02:05:45;101426.53;;;3.01;75.10
9523;BME280;63165;43.016;25.784;2023-02-15T02:08:13;101424.63;;;2.96;75.07
9523;BME280;63165;43.016;25.784;2023-02-15T02:10:41;101415.03;;;2.93;75.02
9523;BME280;63165;43.016;25.784;2023-02-15T02:13:08;101412.16;;;2.85;75.08
9523;BME280;63165;43.016;25.784;2023-02-15T02:15:40;101421.00;;;2.68;75.16
9523;BME280;63165;43.016;25.784;2023-02-15T02:18:22;101426.16;;;2.68;75.39
9523;BME280;63165;43.016;25.784;2023-02-15T02:21:07;101428.56;;;2.63;75.33
9523;BME280;63165;43.016;25.784;2023-02-15T02:23:55;101429.41;;;2.62;75.24
9523;BME280;63165;43.016;25.784;2023-02-15T02:26:56;101435.16;;;2.55;75.28
9523;BME280;63165;43.016;25.784;2023-02-15T02:29:44;101425.53;;;2.51;75.48
9523;BME280;63165;43.016;25.784;2023-02-15T02:35:24;101429.78;;;2.50;75.09
9523;BME280;63165;43.016;25.784;2023-02-15T02:38:02;101433.78;;;2.42;74.73
9523;BME280;63165;43.016;25.784;2023-02-15T02:40:47;101410.72;;;2.24;75.11
9523;BME280;63165;43.016;25.784;2023-02-15T02:43:21;101432.44;;;2.29;75.12
9523;BME280;63165;43.016;25.784;2023-02-15T02:45:55;101415.28;;;2.09;75.28
9523;BME280;63165;43.016;25.784;2023-02-15T02:48:27;101445.84;;;2.21;74.92
9523;BME280;63165;43.016;25.784;2023-02-15T02:50:57;101439.50;;;2.12;74.98
9523;BME280;63165;43.016;25.784;2023-02-15T02:53:25;101441.16;;;2.10;75.21
9523;BME280;63165;43.016;25.784;2023-02-15T02:55:56;101440.84;;;2.03;75.07
9523;BME280;63165;43.016;25.784;2023-02-15T02:58:30;101439.03;;;2.00;75.19
9523;BME280;63165;43.016;25.784;2023-02-15T03:00:59;101449.47;;;2.03;75.42
9523;BME280;63165;43.016;25.784;2023-02-15T03:03:34;101443.06;;;1.93;74.87
9523;BME280;63165;43.016;25.784;2023-02-15T03:06:07;101450.81;;;1.93;75.18
9523;BME280;63165;43.016;25.784;2023-02-15T03:08:38;101461.19;;;1.95;75.42
9523;BME280;63165;43.016;25.784;2023-02-15T03:11:08;101466.22;;;1.92;75.50
9523;BME280;63165;43.016;25.784;2023-02-15T03:13:35;101463.84;;;1.97;75.53
9523;BME280;63165;43.016;25.784;2023-02-15T03:16:05;101462.06;;;1.96;75.02
9523;BME280;63165;43.016;25.784;2023-02-15T03:18:54;101465.59;;;1.98;75.26
9523;BME280;63165;43.016;25.784;2023-02-15T03:21:30;101473.16;;;1.93;75.04
9523;BME280;63165;43.016;25.784;2023-02-15T03:24:00;101476.16;;;1.83;74.98
9523;BME280;63165;43.016;25.784;2023-02-15T03:26:29;101465.53;;;1.75;75.51
9523;BME280;63165;43.016;25.784;2023-02-15T03:28:58;101477.03;;;1.83;75.39
9523;BME280;63165;43.016;25.784;2023-02-15T03:31:30;101478.19;;;1.90;75.31
9523;BME280;63165;43.016;25.784;2023-02-15T03:34:01;101499.47;;;1.84;75.13
9523;BME280;63165;43.016;25.784;2023-02-15T03:36:38;101477.63;;;1.76;75.44
9523;BME280;63165;43.016;25.784;2023-02-15T03:39:12;101488.97;;;1.80;75.51
9523;BME280;63165;43.016;25.784;2023-02-15T03:41:45;101486.84;;;1.71;75.46
9523;BME280;63165;43.016;25.784;2023-02-15T03:44:19;101494.66;;;1.72;75.95
9523;BME280;63165;43.016;25.784;2023-02-15T03:46:53;101496.31;;;1.70;75.97
9523;BME280;63165;43.016;25.784;2023-02-15T03:49:26;101493.66;;;1.69;76.07
9523;BME280;63165;43.016;25.784;2023-02-15T03:51:59;101501.06;;;1.61;76.04
9523;BME280;63165;43.016;25.784;2023-02-15T03:54:30;101488.97;;;1.60;76.23
9523;BME280;63165;43.016;25.784;2023-02-15T03:57:12;101497.09;;;1.69;76.20
9523;BME280;63165;43.016;25.784;2023-02-15T03:59:57;101505.47;;;1.64;75.70
9523;BME280;63165;43.016;25.784;2023-02-15T04:02:58;101512.34;;;1.63;76.27
9523;BME280;63165;43.016;25.784;2023-02-15T04:05:29;101517.59;;;1.66;76.33
9523;BME280;63165;43.016;25.784;2023-02-15T04:07:58;101525.97;;;1.61;76.10
9523;BME280;63165;43.016;25.784;2023-02-15T04:10:25;101531.47;;;1.68;75.96
9523;BME280;63165;43.016;25.784;2023-02-15T04:13:09;101535.66;;;1.66;75.97
9523;BME280;63165;43.016;25.784;2023-02-15T04:15:37;101537.38;;;1.66;75.99
9523;BME280;63165;43.016;25.784;2023-02-15T04:18:21;101529.50;;;1.63;76.17
9523;BME280;63165;43.016;25.784;2023-02-15T04:21:02;101513.69;;;1.55;76.34
9523;BME280;63165;43.016;25.784;2023-02-15T04:23:48;101531.19;;;1.62;76.33
9523;BME280;63165;43.016;25.784;2023-02-15T04:26:33;101529.16;;;1.55;76.59
9523;BME280;63165;43.016;25.784;2023-02-15T04:29:00;101512.41;;;1.45;76.70
9523;BME280;63165;43.016;25.784;2023-02-15T04:31:27;101527.94;;;1.47;77.07
9523;BME280;63165;43.016;25.784;2023-02-15T04:33:54;101540.31;;;1.54;77.83
9523;BME280;63165;43.016;25.784;2023-02-15T04:36:21;101522.78;;;1.47;77.60
9523;BME280;63165;43.016;25.784;2023-02-15T04:38:50;101539.63;;;1.58;77.88
9523;BME280;63165;43.016;25.784;2023-02-15T04:41:17;101543.16;;;1.60;78.27
9523;BME280;63165;43.016;25.784;2023-02-15T04:43:44;101546.88;;;1.67;78.13
9523;BME280;63165;43.016;25.784;2023-02-15T04:46:12;101542.00;;;1.73;78.31
9523;BME280;63165;43.016;25.784;2023-02-15T04:48:40;101548.16;;;1.77;78.45
9523;BME280;63165;43.016;25.784;2023-02-15T04:51:07;101547.34;;;1.78;78.21
9523;BME280;63165;43.016;25.784;2023-02-15T04:53:35;101546.59;;;1.80;78.45
9523;BME280;63165;43.016;25.784;2023-02-15T04:56:04;101535.44;;;1.81;78.17
9523;BME280;63165;43.016;25.784;2023-02-15T04:58:31;101550.13;;;1.82;78.50
9523;BME280;63165;43.016;25.784;2023-02-15T05:00:58;101543.81;;;1.75;78.23
9523;BME280;63165;43.016;25.784;2023-02-15T05:03:26;101554.44;;;1.83;78.46
9523;BME280;63165;43.016;25.784;2023-02-15T05:05:53;101560.63;;;1.87;78.81
9523;BME280;63165;43.016;25.784;2023-02-15T05:08:20;101563.56;;;1.94;78.29
9523;BME280;63165;43.016;25.784;2023-02-15T05:10:48;101562.94;;;2.00;78.42
9523;BME280;63165;43.016;25.784;2023-02-15T05:13:16;101563.06;;;2.03;78.35
9523;BME280;63165;43.016;25.784;2023-02-15T05:15:47;101564.63;;;2.00;78.13
9523;BME280;63165;43.016;25.784;2023-02-15T05:18:16;101568.28;;;2.05;78.30
9523;BME280;63165;43.016;25.784;2023-02-15T05:20:44;101576.19;;;2.08;77.98
9523;BME280;63165;43.016;25.784;2023-02-15T05:23:11;101587.38;;;2.08;78.29
9523;BME280;63165;43.016;25.784;2023-02-15T05:25:38;101589.03;;;2.06;78.51
9523;BME280;63165;43.016;25.784;2023-02-15T05:28:26;101590.97;;;2.12;78.16
9523;BME280;63165;43.016;25.784;2023-02-15T05:31:02;101578.94;;;2.12;78.49
9523;BME280;63165;43.016;25.784;2023-02-15T05:33:30;101578.94;;;2.12;78.04
9523;BME280;63165;43.016;25.784;2023-02-15T05:35:58;101589.41;;;2.16;78.66
9523;BME280;63165;43.016;25.784;2023-02-15T05:38:25;101584.09;;;2.12;78.53
9523;BME280;63165;43.016;25.784;2023-02-15T05:40:52;101592.00;;;2.16;78.59
9523;BME280;63165;43.016;25.784;2023-02-15T05:43:20;101589.34;;;2.14;78.67
9523;BME280;63165;43.016;25.784;2023-02-15T05:45:49;101595.44;;;2.16;78.71
9523;BME280;63165;43.016;25.784;2023-02-15T05:48:17;101592.63;;;2.10;78.67
9523;BME280;63165;43.016;25.784;2023-02-15T05:50:45;101604.97;;;2.17;78.79
9523;BME280;63165;43.016;25.784;2023-02-15T05:53:12;101598.03;;;2.16;78.65
9523;BME280;63165;43.016;25.784;2023-02-15T05:55:40;101610.25;;;2.20;78.86
9523;BME280;63165;43.016;25.784;2023-02-15T05:58:07;101589.97;;;2.08;78.60
9523;BME280;63165;43.016;25.784;2023-02-15T06:00:34;101599.84;;;2.19;78.74
9523;BME280;63165;43.016;25.784;2023-02-15T06:03:03;101619.25;;;2.30;78.95
9523;BME280;63165;43.016;25.784;2023-02-15T06:05:30;101619.25;;;2.30;79.05
9523;BME280;63165;43.016;25.784;2023-02-15T06:07:58;101611.56;;;2.10;78.98
9523;BME280;63165;43.016;25.784;2023-02-15T06:10:25;101619.97;;;2.26;79.23
9523;BME280;63165;43.016;25.784;2023-02-15T06:12:52;101609.38;;;2.20;78.77
9523;BME280;63165;43.016;25.784;2023-02-15T06:15:19;101612.09;;;2.23;78.93
9523;BME280;63165;43.016;25.784;2023-02-15T06:17:46;101615.88;;;2.31;79.02
9523;BME280;63165;43.016;25.784;2023-02-15T06:20:15;101621.28;;;2.37;79.21
9523;BME280;63165;43.016;25.784;2023-02-15T06:22:43;101620.56;;;2.40;78.92
9523;BME280;63165;43.016;25.784;2023-02-15T06:25:10;101621.38;;;2.39;79.01
9523;BME280;63165;43.016;25.784;2023-02-15T06:27:40;101622.22;;;2.39;79.08
9523;BME280;63165;43.016;25.784;2023-02-15T06:30:09;101629.13;;;2.39;79.17
9523;BME280;63165;43.016;25.784;2023-02-15T06:32:37;101620.56;;;2.40;78.89
9523;BME280;63165;43.016;25.784;2023-02-15T06:35:04;101623.19;;;2.41;78.98
9523;BME280;63165;43.016;25.784;2023-02-15T06:37:33;101617.22;;;2.42;79.30
9523;BME280;63165;43.016;25.784;2023-02-15T06:40:01;101620.94;;;2.49;79.60
9523;BME280;63165;43.016;25.784;2023-02-15T06:42:29;101630.66;;;2.55;79.73
9523;BME280;63165;43.016;25.784;2023-02-15T06:44:57;101629.00;;;2.57;79.79
9523;BME280;63165;43.016;25.784;2023-02-15T06:47:25;101628.25;;;2.59;79.85
9523;BME280;63165;43.016;25.784;2023-02-15T06:49:53;101614.22;;;2.52;80.17
9523;BME280;63165;43.016;25.784;2023-02-15T06:52:20;101616.25;;;2.61;80.07
9523;BME280;63165;43.016;25.784;2023-02-15T06:54:49;101619.84;;;2.65;79.92
9523;BME280;63165;43.016;25.784;2023-02-15T06:57:16;101624.22;;;2.66;80.00
9523;BME280;63165;43.016;25.784;2023-02-15T06:59:43;101595.59;;;2.40;80.17
9523;BME280;63165;43.016;25.784;2023-02-15T07:02:11;101620.72;;;2.65;80.07
9523;BME280;63165;43.016;25.784;2023-02-15T07:04:39;101617.66;;;2.74;80.62
9523;BME280;63165;43.016;25.784;2023-02-15T07:07:08;101621.25;;;2.78;80.42
9523;BME280;63165;43.016;25.784;2023-02-15T07:09:36;101618.78;;;2.81;80.71
9523;BME280;63165;43.016;25.784;2023-02-15T07:12:06;101619.03;;;2.87;81.07
9523;BME280;63165;43.016;25.784;2023-02-15T07:14:50;101622.72;;;2.94;81.39
9523;BME280;63165;43.016;25.784;2023-02-15T07:17:18;101608.13;;;2.94;81.48
9523;BME280;63165;43.016;25.784;2023-02-15T07:19:45;101622.34;;;3.05;81.69
9523;BME280;63165;43.016;25.784;2023-02-15T07:22:13;101613.72;;;3.05;81.96
9523;BME280;63165;43.016;25.784;2023-02-15T07:24:40;101616.75;;;3.17;82.49
9523;BME280;63165;43.016;25.784;2023-02-15T07:27:08;101617.81;;;3.22;83.16
9523;BME280;63165;43.016;25.784;2023-02-15T07:29:36;101613.06;;;3.33;83.21
9523;BME280;63165;43.016;25.784;2023-02-15T07:32:03;101595.19;;;3.39;83.47
9523;BME280;63165;43.016;25.784;2023-02-15T07:34:31;101613.06;;;3.56;83.53
9523;BME280;63165;43.016;25.784;2023-02-15T07:36:58;101610.63;;;3.60;83.34
9523;BME280;63165;43.016;25.784;2023-02-15T07:39:25;101611.91;;;3.72;83.36
9523;BME280;63165;43.016;25.784;2023-02-15T07:41:53;101605.25;;;3.78;83.01
9523;BME280;63165;43.016;25.784;2023-02-15T07:44:21;101607.13;;;3.82;82.52
9523;BME280;63165;43.016;25.784;2023-02-15T07:46:49;101598.63;;;3.86;82.18
9523;BME280;63165;43.016;25.784;2023-02-15T07:49:16;101571.78;;;3.60;82.58
9523;BME280;63165;43.016;25.784;2023-02-15T07:51:43;101601.59;;;3.97;82.49
9523;BME280;63165;43.016;25.784;2023-02-15T07:54:11;101597.47;;;4.02;82.11
9523;BME280;63165;43.016;25.784;2023-02-15T07:56:38;101598.41;;;4.04;81.85
9523;BME280;63165;43.016;25.784;2023-02-15T07:59:05;101601.19;;;4.11;81.67
9523;BME280;63165;43.016;25.784;2023-02-15T08:01:36;101589.78;;;4.05;81.28
9523;BME280;63165;43.016;25.784;2023-02-15T08:04:05;101593.63;;;4.17;81.74
9523;BME280;63165;43.016;25.784;2023-02-15T08:06:33;101591.22;;;4.21;81.84
9523;BME280;63165;43.016;25.784;2023-02-15T08:09:03;101594.84;;;4.26;81.33
9523;BME280;63165;43.016;25.784;2023-02-15T08:11:33;101594.19;;;4.34;81.39
9523;BME280;63165;43.016;25.784;2023-02-15T08:14:03;101588.31;;;4.38;81.46
9523;BME280;63165;43.016;25.784;2023-02-15T08:16:35;101572.66;;;4.35;81.28
9523;BME280;63165;43.016;25.784;2023-02-15T08:19:05;101597.47;;;4.54;80.80
9523;BME280;63165;43.016;25.784;2023-02-15T08:21:34;101594.38;;;4.65;80.19
9523;BME280;63165;43.016;25.784;2023-02-15T08:24:03;101584.28;;;4.73;80.11
9523;BME280;63165;43.016;25.784;2023-02-15T08:26:31;101584.59;;;4.84;80.24
9523;BME280;63165;43.016;25.784;2023-02-15T08:28:59;101586.72;;;4.97;79.27
9523;BME280;63165;43.016;25.784;2023-02-15T08:31:28;101577.53;;;5.07;79.07
9523;BME280;63165;43.016;25.784;2023-02-15T08:33:57;101571.69;;;5.14;78.55
9523;BME280;63165;43.016;25.784;2023-02-15T08:36:26;101578.28;;;5.32;77.88
9523;BME280;63165;43.016;25.784;2023-02-15T08:38:54;101568.22;;;5.44;77.39
9523;BME280;63165;43.016;25.784;2023-02-15T08:41:22;101583.50;;;5.63;77.08
9523;BME280;63165;43.016;25.784;2023-02-15T08:43:52;101582.31;;;5.82;76.27
9523;BME280;63165;43.016;25.784;2023-02-15T08:46:22;101576.53;;;5.94;75.88
9523;BME280;63165;43.016;25.784;2023-02-15T08:48:50;101569.13;;;6.07;74.30
9523;BME280;63165;43.016;25.784;2023-02-15T08:51:21;101593.78;;;6.22;73.89
9523;BME280;63165;43.016;25.784;2023-02-15T08:53:51;101581.09;;;6.35;73.34
9523;BME280;63165;43.016;25.784;2023-02-15T08:56:20;101584.91;;;6.48;73.13
9523;BME280;63165;43.016;25.784;2023-02-15T08:58:48;101586.81;;;6.56;72.26
9523;BME280;63165;43.016;25.784;2023-02-15T09:01:17;101593.94;;;6.64;71.64
9523;BME280;63165;43.016;25.784;2023-02-15T09:03:46;101585.41;;;6.68;71.77
9523;BME280;63165;43.016;25.784;2023-02-15T09:06:14;101582.19;;;6.79;71.79
9523;BME280;63165;43.016;25.784;2023-02-15T09:08:43;101562.38;;;6.86;71.44
9523;BME280;63165;43.016;25.784;2023-02-15T09:11:11;101580.97;;;7.02;70.98
9523;BME280;63165;43.016;25.784;2023-02-15T09:13:42;101571.56;;;7.08;70.45
9523;BME280;63165;43.016;25.784;2023-02-15T09:16:10;101576.06;;;7.15;70.09
9523;BME280;63165;43.016;25.784;2023-02-15T09:18:38;101584.03;;;7.23;70.16
9523;BME280;63165;43.016;25.784;2023-02-15T09:21:08;101574.75;;;7.36;69.38
9523;BME280;63165;43.016;25.784;2023-02-15T09:23:35;101562.06;;;7.51;68.96
9523;BME280;63165;43.016;25.784;2023-02-15T09:26:07;101564.84;;;7.61;68.07
9523;BME280;63165;43.016;25.784;2023-02-15T09:28:34;101565.16;;;7.77;67.19
9523;BME280;63165;43.016;25.784;2023-02-15T09:31:10;101569.72;;;7.88;66.02
9523;BME280;63165;43.016;25.784;2023-02-15T09:33:39;101575.06;;;7.95;65.76
9523;BME280;63165;43.016;25.784;2023-02-15T09:36:15;101563.88;;;8.01;64.41
9523;BME280;63165;43.016;25.784;2023-02-15T09:38:43;101551.88;;;8.11;63.79
9523;BME280;63165;43.016;25.784;2023-02-15T09:41:33;101563.34;;;8.21;63.17
9523;BME280;63165;43.016;25.784;2023-02-15T09:44:15;101548.69;;;8.27;62.20
9523;BME280;63165;43.016;25.784;2023-02-15T09:46:55;101563.75;;;8.42;62.69
9523;BME280;63165;43.016;25.784;2023-02-15T09:49:32;101551.75;;;8.52;62.58
9523;BME280;63165;43.016;25.784;2023-02-15T09:52:17;101527.28;;;8.44;61.36
9523;BME280;63165;43.016;25.784;2023-02-15T09:55:14;101549.22;;;8.58;60.83
9523;BME280;63165;43.016;25.784;2023-02-15T09:57:56;101545.81;;;8.62;61.74
9523;BME280;63165;43.016;25.784;2023-02-15T10:00:30;101538.09;;;8.68;61.66
9523;BME280;63165;43.016;25.784;2023-02-15T10:03:15;101540.75;;;8.73;60.85
9523;BME280;63165;43.016;25.784;2023-02-15T10:06:02;101530.50;;;8.85;60.98
9523;BME280;63165;43.016;25.784;2023-02-15T10:11:28;101532.56;;;9.09;60.71
9523;BME280;63165;43.016;25.784;2023-02-15T10:14:31;101530.91;;;9.15;59.00
9523;BME280;63165;43.016;25.784;2023-02-15T10:17:13;101523.88;;;9.10;58.81
9523;BME280;63165;43.016;25.784;2023-02-15T10:19:52;101516.06;;;9.12;58.41
9523;BME280;63165;43.016;25.784;2023-02-15T10:22:29;101526.63;;;9.21;58.35
9523;BME280;63165;43.016;25.784;2023-02-15T10:25:11;101511.97;;;9.34;57.87
9523;BME280;63165;43.016;25.784;2023-02-15T10:27:45;101520.00;;;9.51;58.01
9523;BME280;63165;43.016;25.784;2023-02-15T10:30:16;101506.25;;;9.66;57.84
9523;BME280;63165;43.016;25.784;2023-02-15T10:32:57;101504.63;;;9.82;56.99
9523;BME280;63165;43.016;25.784;2023-02-15T10:35:31;101496.06;;;9.95;56.50
9523;BME280;63165;43.016;25.784;2023-02-15T10:38:17;101490.06;;;10.07;55.92
9523;BME280;63165;43.016;25.784;2023-02-15T10:40:54;101500.63;;;10.19;56.41
9523;BME280;63165;43.016;25.784;2023-02-15T10:43:41;101499.91;;;10.31;55.88
9523;BME280;63165;43.016;25.784;2023-02-15T10:46:23;101496.53;;;10.47;56.22
9523;BME280;63165;43.016;25.784;2023-02-15T10:49:13;101493.97;;;10.55;54.64
9523;BME280;63165;43.016;25.784;2023-02-15T10:51:55;101492.25;;;10.59;55.15
9523;BME280;63165;43.016;25.784;2023-02-15T10:54:35;101493.13;;;10.61;54.91
9523;BME280;63165;43.016;25.784;2023-02-15T10:57:14;101488.72;;;10.58;54.78
9523;BME280;63165;43.016;25.784;2023-02-15T10:59:56;101484.38;;;10.60;54.57
9523;BME280;63165;43.016;25.784;2023-02-15T11:02:35;101482.63;;;10.56;54.58
9523;BME280;63165;43.016;25.784;2023-02-15T11:05:20;101481.66;;;10.45;54.59
9523;BME280;63165;43.016;25.784;2023-02-15T11:07:54;101490.44;;;10.50;54.63
9523;BME280;63165;43.016;25.784;2023-02-15T11:10:29;101486.06;;;10.51;54.00
9523;BME280;63165;43.016;25.784;2023-02-15T11:12:58;101480.88;;;10.55;54.00
9523;BME280;63165;43.016;25.784;2023-02-15T11:15:31;101476.59;;;10.71;53.84
9523;BME280;63165;43.016;25.784;2023-02-15T11:18:05;101467.09;;;10.85;53.62
9523;BME280;63165;43.016;25.784;2023-02-15T11:20:38;101461.91;;;10.96;53.19
9523;BME280;63165;43.016;25.784;2023-02-15T11:23:10;101456.72;;;11.05;52.94
9523;BME280;63165;43.016;25.784;2023-02-15T11:25:43;101448.03;;;11.19;53.35
9523;BME280;63165;43.016;25.784;2023-02-15T11:28:18;101449.78;;;11.27;53.30
9523;BME280;63165;43.016;25.784;2023-02-15T11:30:49;101451.56;;;11.36;53.60
9523;BME280;63165;43.016;25.784;2023-02-15T11:33:22;101448.09;;;11.43;53.18
9523;BME280;63165;43.016;25.784;2023-02-15T11:35:55;101455.97;;;11.54;52.58
9523;BME280;63165;43.016;25.784;2023-02-15T11:38:26;101452.50;;;11.60;51.97
9523;BME280;63165;43.016;25.784;2023-02-15T11:40:57;101442.88;;;11.66;51.50
9523;BME280;63165;43.016;25.784;2023-02-15T11:43:32;101436.78;;;11.69;51.04
9523;BME280;63165;43.016;25.784;2023-02-15T11:46:01;101432.38;;;11.76;50.87
9523;BME280;63165;43.016;25.784;2023-02-15T11:48:31;101422.78;;;11.78;49.99
9523;BME280;63165;43.016;25.784;2023-02-15T11:50:59;101410.53;;;11.81;50.14
9523;BME280;63165;43.016;25.784;2023-02-15T11:53:28;101436.81;;;12.04;50.00
9523;BME280;63165;43.016;25.784;2023-02-15T11:55:59;101442.91;;;12.11;49.61
9523;BME280;63165;43.016;25.784;2023-02-15T11:58:34;101435.06;;;12.14;48.94
9523;BME280;63165;43.016;25.784;2023-02-15T12:01:09;101427.19;;;12.14;48.73
9523;BME280;63165;43.016;25.784;2023-02-15T12:03:55;101428.94;;;12.08;48.54
9523;BME280;63165;43.016;25.784;2023-02-15T12:06:27;101417.56;;;11.95;48.98
9523;BME280;63165;43.016;25.784;2023-02-15T12:09:01;101421.97;;;11.90;48.80
9523;BME280;63165;43.016;25.784;2023-02-15T12:11:35;101428.03;;;11.87;48.96
9523;BME280;63165;43.016;25.784;2023-02-15T12:14:04;101419.28;;;11.83;49.28
9523;BME280;63165;43.016;25.784;2023-02-15T12:16:40;101416.66;;;11.83;49.26
9523;BME280;63165;43.016;25.784;2023-02-15T12:19:26;101416.66;;;11.82;48.47
9523;BME280;63165;43.016;25.784;2023-02-15T12:21:56;101416.66;;;11.76;49.05
9523;BME280;63165;43.016;25.784;2023-02-15T12:24:27;101382.56;;;11.56;49.34
9523;BME280;63165;43.016;25.784;2023-02-15T12:27:03;101416.66;;;11.82;49.20
9523;BME280;63165;43.016;25.784;2023-02-15T12:29:35;101403.53;;;11.83;49.50
9523;BME280;63165;43.016;25.784;2023-02-15T12:32:09;101396.53;;;11.85;48.87
9523;BME280;63165;43.016;25.784;2023-02-15T12:34:40;101398.31;;;11.91;48.26
9523;BME280;63165;43.016;25.784;2023-02-15T12:37:11;101398.31;;;11.91;48.60
9523;BME280;63165;43.016;25.784;2023-02-15T12:39:51;101385.19;;;11.83;48.69
9523;BME280;63165;43.016;25.784;2023-02-15T12:42:19;101400.03;;;11.89;48.48
9523;BME280;63165;43.016;25.784;2023-02-15T12:44:55;101391.34;;;11.90;49.17
9523;BME280;63165;43.016;25.784;2023-02-15T12:47:22;101393.97;;;11.99;48.99
9523;BME280;63165;43.016;25.784;2023-02-15T12:50:21;101382.59;;;12.05;48.05
9523;BME280;63165;43.016;25.784;2023-02-15T12:52:50;101387.81;;;12.10;48.38
9523;BME280;63165;43.016;25.784;2023-02-15T12:55:23;101387.81;;;12.14;48.02
9523;BME280;63165;43.016;25.784;2023-02-15T12:58:12;101386.09;;;12.10;47.77
9523;BME280;63165;43.016;25.784;2023-02-15T13:00:43;101386.09;;;12.09;47.85
9523;BME280;63165;43.016;25.784;2023-02-15T13:03:17;101378.22;;;12.06;47.88
9523;BME280;63165;43.016;25.784;2023-02-15T13:05:49;101390.47;;;12.05;47.42
9523;BME280;63165;43.016;25.784;2023-02-15T13:08:20;101379.09;;;12.04;47.57
9523;BME280;63165;43.016;25.784;2023-02-15T13:10:54;101376.47;;;12.03;47.88
9523;BME280;63165;43.016;25.784;2023-02-15T13:13:25;101377.34;;;12.05;47.38
9523;BME280;63165;43.016;25.784;2023-02-15T13:15:56;101373.84;;;11.98;47.25
9523;BME280;63165;43.016;25.784;2023-02-15T13:18:30;101380.84;;;12.01;46.74
9523;BME280;63165;43.016;25.784;2023-02-15T13:21:06;101381.72;;;11.98;46.67
9523;BME280;63165;43.016;25.784;2023-02-15T13:23:37;101379.09;;;11.97;46.81
9523;BME280;63165;43.016;25.784;2023-02-15T13:26:11;101381.72;;;11.98;47.19
9523;BME280;63165;43.016;25.784;2023-02-15T13:28:44;101379.09;;;11.97;46.76